Time;durP1;ratioP1;P1;durP2;ratioP2;P2;SDS_P1;SDS_P2;PMS_P1;PMS_P2;Temp;Humidity;BMP_temperature;BMP_pressure;BME280_temperature;BME280_humidity;BME280_pressure;Samples;Min_cycle;Max_cycle;Signal;HPM_P1;HPM_P2
2021/09/29 00:02:02;;;;;;;2.40;0.70;;;12.10;99.90;;;;;;6085789;23;20022;-93
2021/09/29 00:04:27;;;;;;;2.83;0.60;;;12.10;99.90;;;;;;6085637;23;20002;-90
2021/09/29 00:06:54;;;;;;;3.45;0.77;;;12.10;99.90;;;;;;6085385;23;20010;-93
2021/09/29 00:09:20;;;;;;;3.08;0.70;;;12.10;99.90;;;;;;6086013;23;20014;-93
2021/09/29 00:11:45;;;;;;;2.95;0.52;;;12.10;99.90;;;;;;6085435;23;20022;-93
2021/09/29 00:14:12;;;;;;;1.92;0.57;;;12.10;99.90;;;;;;6085637;23;20384;-93
2021/09/29 00:16:38;;;;;;;3.33;0.60;;;12.10;99.90;;;;;;6085203;23;20085;-94
2021/09/29 00:19:04;;;;;;;3.08;0.80;;;12.10;99.90;;;;;;6085592;23;20002;-93
2021/09/29 00:21:30;;;;;;;6.03;0.60;;;12.10;99.90;;;;;;6085751;23;20017;-92
2021/09/29 00:23:56;;;;;;;2.58;0.50;;;12.10;99.90;;;;;;6069047;23;20021;-94
2021/09/29 00:26:22;;;;;;;4.55;0.70;;;12.10;99.90;;;;;;6115430;23;20010;-94
2021/09/29 00:28:48;;;;;;;7.03;0.70;;;12.10;99.90;;;;;;6091402;23;20010;-93
2021/09/29 00:31:27;;;;;;;3.38;0.77;;;12.10;99.90;;;;;;6091447;23;20013;-94
2021/09/29 00:34:00;;;;;;;1.92;0.60;;;12.10;99.90;;;;;;6115638;23;20010;-94
2021/09/29 00:36:26;;;;;;;4.60;0.70;;;12.10;99.90;;;;;;6091372;23;20005;-92
2021/09/29 00:38:53;;;;;;;3.80;0.65;;;12.20;99.90;;;;;;6115205;23;20006;-94
2021/09/29 00:41:19;;;;;;;2.45;0.57;;;12.20;99.90;;;;;;6115586;23;20038;-94
2021/09/29 00:43:45;;;;;;;1.55;0.55;;;12.20;99.90;;;;;;6115259;23;20105;-93
2021/09/29 00:46:10;;;;;;;2.53;0.70;;;12.10;99.90;;;;;;6110162;23;20018;-93
2021/09/29 00:48:36;;;;;;;3.33;0.60;;;12.10;99.90;;;;;;6110560;23;20007;-94
2021/09/29 00:51:02;;;;;;;4.00;0.73;;;12.10;99.90;;;;;;6110752;23;20010;-94
2021/09/29 00:53:27;;;;;;;2.85;0.77;;;12.10;99.90;;;;;;6086239;23;20017;-93
2021/09/29 00:55:55;;;;;;;4.00;0.82;;;12.10;99.90;;;;;;6115342;23;20029;-93
2021/09/29 00:58:21;;;;;;;2.65;0.50;;;12.10;99.90;;;;;;6091426;23;20081;-93
2021/09/29 01:00:47;;;;;;;3.08;0.63;;;12.10;99.90;;;;;;6091371;23;20054;-93
2021/09/29 01:03:12;;;;;;;3.97;0.70;;;12.10;99.90;;;;;;6139311;23;20014;-93
2021/09/29 01:05:41;;;;;;;5.13;0.60;;;12.10;99.90;;;;;;6115051;23;20038;-94
2021/09/29 01:08:13;;;;;;;4.20;0.68;;;12.00;99.90;;;;;;6115229;23;20454;-93
2021/09/29 01:10:45;;;;;;;4.10;0.70;;;12.10;99.90;;;;;;6115399;23;20032;-93
2021/09/29 01:13:30;;;;;;;3.75;0.70;;;12.10;99.90;;;;;;6091143;23;20014;-94
2021/09/29 01:16:04;;;;;;;6.07;0.93;;;12.10;99.90;;;;;;6139490;23;20089;-92
2021/09/29 01:18:35;;;;;;;5.05;1.02;;;12.10;99.90;;;;;;6115317;23;20006;-93
2021/09/29 01:21:07;;;;;;;4.78;0.70;;;12.20;99.90;;;;;;6115531;23;20005;-91
2021/09/29 01:24:04;;;;;;;2.60;0.80;;;12.10;99.90;;;;;;6115591;23;20010;-94
2021/09/29 01:26:38;;;;;;;3.33;0.60;;;12.10;99.90;;;;;;6115475;23;20081;-93
2021/09/29 01:29:10;;;;;;;4.40;1.02;;;12.20;99.90;;;;;;6115106;23;20080;-93
2021/09/29 01:31:36;;;;;;;2.80;0.73;;;12.10;99.90;;;;;;6139301;23;20018;-93
2021/09/29 01:34:04;;;;;;;4.28;0.63;;;12.10;99.90;;;;;;6114744;23;20006;-91
2021/09/29 01:36:30;;;;;;;2.10;0.60;;;12.20;99.90;;;;;;6114756;23;20018;-93
2021/09/29 01:38:58;;;;;;;4.22;0.70;;;12.10;99.90;;;;;;6139031;23;20042;-92
2021/09/29 01:41:27;;;;;;;2.40;0.82;;;12.00;99.90;;;;;;6114997;23;20062;-92
2021/09/29 01:43:54;;;;;;;2.42;0.60;;;12.10;99.90;;;;;;6139132;23;20002;-93
2021/09/29 01:46:20;;;;;;;2.28;0.52;;;12.00;99.90;;;;;;6114584;23;20013;-91
2021/09/29 01:49:11;;;;;;;3.08;0.60;;;12.00;99.90;;;;;;6139451;23;20030;-92
2021/09/29 01:51:39;;;;;;;3.38;0.70;;;12.00;99.90;;;;;;6114558;23;20013;-94
2021/09/29 01:54:07;;;;;;;2.38;0.52;;;12.00;99.90;;;;;;6113342;23;20014;-92
2021/09/29 01:56:34;;;;;;;3.53;0.70;;;12.00;99.90;;;;;;6114676;23;20006;-93
2021/09/29 01:59:04;;;;;;;2.20;0.50;;;12.00;99.90;;;;;;6090874;23;20061;-92
2021/09/29 02:01:36;;;;;;;2.65;0.60;;;12.00;99.90;;;;;;6114759;23;20085;-93
2021/09/29 02:04:03;;;;;;;3.40;0.77;;;11.90;99.90;;;;;;6114344;23;20018;-92
2021/09/29 02:06:29;;;;;;;2.70;0.60;;;11.90;99.90;;;;;;6114673;23;19998;-93
2021/09/29 02:08:55;;;;;;;1.92;0.63;;;11.90;99.90;;;;;;6114784;23;20017;-93
2021/09/29 02:11:43;;;;;;;2.67;0.70;;;11.90;99.90;;;;;;6090104;23;20022;-92
2021/09/29 02:14:09;;;;;;;3.38;0.70;;;11.80;99.90;;;;;;6114744;23;20018;-92
2021/09/29 02:16:35;;;;;;;3.22;0.77;;;11.80;99.90;;;;;;6114087;23;20001;-93
2021/09/29 02:19:01;;;;;;;2.08;0.73;;;11.80;99.90;;;;;;6114613;23;20067;-91
2021/09/29 02:21:27;;;;;;;2.30;0.63;;;11.80;99.90;;;;;;6090410;23;20065;-92
2021/09/29 02:23:52;;;;;;;2.92;0.80;;;11.70;99.90;;;;;;6090303;23;20143;-92
2021/09/29 02:26:19;;;;;;;4.32;0.75;;;11.70;99.90;;;;;;6114093;23;20025;-93
2021/09/29 02:28:45;;;;;;;2.33;0.63;;;11.70;99.90;;;;;;6090959;23;20017;-93
2021/09/29 02:31:11;;;;;;;3.95;0.80;;;11.70;99.90;;;;;;6090596;23;20013;-92
2021/09/29 02:33:37;;;;;;;5.82;0.93;;;11.60;99.90;;;;;;6114458;23;20014;-95
2021/09/29 02:36:02;;;;;;;2.00;0.75;;;11.60;99.90;;;;;;6114771;23;20009;-92
2021/09/29 02:38:28;;;;;;;2.30;0.88;;;11.60;99.90;;;;;;6114859;23;20017;-94
2021/09/29 02:40:54;;;;;;;3.38;1.27;;;11.60;99.90;;;;;;6114297;23;20010;-94
2021/09/29 02:43:19;;;;;;;3.88;0.80;;;11.50;99.90;;;;;;6090527;23;20061;-93
2021/09/29 02:45:45;;;;;;;4.80;0.70;;;11.50;99.90;;;;;;6090169;23;20037;-94
2021/09/29 02:48:12;;;;;;;6.00;0.88;;;11.60;99.90;;;;;;6114562;23;20066;-93
2021/09/29 02:50:38;;;;;;;3.35;0.70;;;11.50;99.90;;;;;;6090475;23;20010;-93
2021/09/29 02:53:04;;;;;;;3.40;0.75;;;11.50;99.90;;;;;;6114675;23;20022;-91
2021/09/29 02:55:29;;;;;;;4.47;1.20;;;11.50;99.90;;;;;;6114466;23;20002;-94
2021/09/29 02:57:55;;;;;;;3.03;1.02;;;11.50;99.90;;;;;;6114727;23;20014;-93
2021/09/29 03:00:21;;;;;;;4.95;0.90;;;11.50;99.90;;;;;;6114647;23;20005;-92
2021/09/29 03:02:46;;;;;;;4.78;1.10;;;11.50;99.90;;;;;;6090110;23;20014;-93
2021/09/29 03:05:12;;;;;;;4.95;0.80;;;11.50;99.90;;;;;;6089836;23;20093;-92
2021/09/29 03:07:38;;;;;;;3.50;0.85;;;11.50;99.90;;;;;;6090038;23;20086;-94
2021/09/29 03:10:04;;;;;;;3.85;0.90;;;11.50;99.90;;;;;;6114184;23;20038;-94
2021/09/29 03:12:30;;;;;;;4.85;1.30;;;11.40;99.90;;;;;;6089977;23;20021;-93
2021/09/29 03:14:56;;;;;;;5.50;1.33;;;11.40;99.90;;;;;;6090205;23;20006;-91
2021/09/29 03:17:22;;;;;;;5.40;0.90;;;11.40;99.90;;;;;;6114224;23;20009;-94
2021/09/29 03:19:49;;;;;;;3.35;1.05;;;11.40;99.90;;;;;;6114382;23;20034;-93
2021/09/29 03:22:15;;;;;;;3.70;1.10;;;11.40;99.90;;;;;;6114104;23;20009;-94
2021/09/29 03:24:41;;;;;;;6.68;1.20;;;11.40;99.90;;;;;;6113776;23;20065;-92
2021/09/29 03:27:07;;;;;;;5.15;1.42;;;11.40;99.90;;;;;;6113357;23;20383;-94
2021/09/29 03:29:32;;;;;;;5.97;1.20;;;11.40;99.90;;;;;;6090276;23;20006;-92
2021/09/29 03:31:58;;;;;;;4.20;1.17;;;11.30;99.90;;;;;;6113649;23;20040;-93
2021/09/29 03:34:24;;;;;;;4.38;1.15;;;11.40;99.90;;;;;;6114356;23;20088;-92
2021/09/29 03:36:49;;;;;;;4.70;1.15;;;11.40;99.90;;;;;;6090025;23;20014;-93
2021/09/29 03:39:15;;;;;;;4.20;1.27;;;11.30;99.90;;;;;;6115782;23;20010;-93
2021/09/29 03:41:41;;;;;;;4.65;0.90;;;11.30;99.90;;;;;;6115554;23;20015;-92
2021/09/29 03:44:13;;;;;;;5.82;1.55;;;11.30;99.90;;;;;;6091605;23;20010;-92
2021/09/29 03:46:38;;;;;;;3.55;1.10;;;11.30;99.90;;;;;;6113902;23;20018;-92
2021/09/29 03:49:05;;;;;;;2.90;1.02;;;11.40;99.90;;;;;;6113796;23;20059;-91
2021/09/29 03:51:31;;;;;;;3.85;1.45;;;11.30;99.90;;;;;;6114121;23;20010;-94
2021/09/29 03:53:57;;;;;;;6.75;1.10;;;11.30;99.90;;;;;;6139646;23;20335;-91
2021/09/29 03:56:23;;;;;;;4.53;1.35;;;11.30;99.90;;;;;;6113589;23;20002;-93
2021/09/29 03:58:49;;;;;;;4.43;1.17;;;11.30;99.90;;;;;;6113893;23;20230;-92
2021/09/29 04:01:15;;;;;;;3.75;1.25;;;11.30;99.90;;;;;;6114230;23;20081;-94
2021/09/29 04:03:41;;;;;;;3.67;1.10;;;11.30;99.90;;;;;;6114084;23;20336;-93
2021/09/29 04:06:06;;;;;;;4.03;1.08;;;11.30;99.90;;;;;;6113657;23;20010;-93
2021/09/29 04:08:32;;;;;;;3.67;1.45;;;11.30;99.90;;;;;;6113720;23;20041;-92
2021/09/29 04:10:58;;;;;;;4.15;1.20;;;11.30;99.90;;;;;;6089468;23;20057;-92
2021/09/29 04:13:24;;;;;;;4.07;1.38;;;11.30;99.90;;;;;;6114399;23;20010;-93
2021/09/29 04:15:50;;;;;;;9.10;2.67;;;11.30;99.90;;;;;;6113784;23;20485;-94
2021/09/29 04:18:16;;;;;;;5.22;1.00;;;11.30;99.90;;;;;;6113971;23;20024;-94
2021/09/29 04:20:42;;;;;;;4.60;1.40;;;11.30;99.90;;;;;;6113738;23;20006;-94
2021/09/29 04:23:08;;;;;;;3.30;0.98;;;11.30;99.90;;;;;;6113419;23;20088;-93
2021/09/29 04:25:36;;;;;;;5.32;1.20;;;11.30;99.90;;;;;;6114121;23;20044;-92
2021/09/29 04:28:02;;;;;;;3.75;0.80;;;11.30;99.90;;;;;;6113253;23;20006;-93
2021/09/29 04:30:28;;;;;;;3.58;0.70;;;11.30;99.90;;;;;;6113925;23;20014;-93
2021/09/29 04:32:55;;;;;;;4.75;1.10;;;11.40;99.90;;;;;;6114449;23;20024;-92
2021/09/29 04:35:21;;;;;;;3.95;1.55;;;11.40;99.90;;;;;;6114542;23;20038;-94
2021/09/29 04:37:47;;;;;;;3.83;0.88;;;11.50;99.90;;;;;;6115330;23;20065;-91
2021/09/29 04:40:13;;;;;;;3.72;1.35;;;11.50;99.90;;;;;;6116800;23;20017;-94
2021/09/29 04:42:38;;;;;;;6.05;1.95;;;11.50;99.90;;;;;;6116381;23;20014;-92
2021/09/29 04:45:06;;;;;;;3.83;0.80;;;11.50;99.90;;;;;;6116310;23;20002;-91
2021/09/29 04:47:31;;;;;;;6.00;1.55;;;11.60;99.90;;;;;;6122047;23;20048;-91
2021/09/29 04:49:58;;;;;;;2.90;1.10;;;11.60;99.90;;;;;;6120374;23;20009;-91
2021/09/29 04:52:24;;;;;;;4.60;1.02;;;11.60;99.90;;;;;;6123009;23;20018;-91
2021/09/29 04:54:50;;;;;;;3.22;1.05;;;11.60;99.90;;;;;;6123471;23;20010;-93
2021/09/29 04:57:16;;;;;;;4.35;1.27;;;11.60;99.90;;;;;;6123212;23;20096;-91
2021/09/29 04:59:44;;;;;;;4.63;1.15;;;11.60;99.90;;;;;;6099091;23;20029;-91
2021/09/29 05:02:11;;;;;;;4.63;1.30;;;11.60;99.90;;;;;;6122364;23;20034;-92
2021/09/29 05:04:37;;;;;;;2.00;0.90;;;11.60;99.90;;;;;;6122280;23;20082;-91
2021/09/29 05:07:04;;;;;;;3.63;1.40;;;11.60;99.90;;;;;;6122599;23;20206;-91
2021/09/29 05:09:30;;;;;;;3.97;1.00;;;11.60;99.90;;;;;;6144845;23;20048;-90
2021/09/29 05:12:07;;;;;;;4.80;1.15;;;11.60;99.90;;;;;;6122094;23;20049;-91
2021/09/29 05:14:33;;;;;;;8.63;1.30;;;11.70;99.90;;;;;;6096334;23;20005;-91
2021/09/29 05:17:00;;;;;;;2.83;1.10;;;11.60;99.90;;;;;;6115778;23;20111;-91
2021/09/29 05:19:26;;;;;;;3.47;1.08;;;11.60;99.90;;;;;;6115536;23;20006;-92
2021/09/29 05:21:51;;;;;;;4.65;1.27;;;11.60;99.90;;;;;;6116087;23;20005;-92
2021/09/29 05:24:17;;;;;;;4.97;1.08;;;11.60;99.90;;;;;;6115972;23;20089;-92
2021/09/29 05:26:42;;;;;;;3.63;1.00;;;11.60;99.90;;;;;;6091569;23;20010;-91
2021/09/29 05:29:11;;;;;;;3.17;1.05;;;11.60;99.90;;;;;;6115642;23;20062;-91
2021/09/29 05:31:37;;;;;;;3.65;0.85;;;11.60;99.90;;;;;;6115551;23;20010;-91
2021/09/29 05:34:02;;;;;;;3.83;1.20;;;11.60;99.90;;;;;;6091101;23;20006;-92
2021/09/29 05:36:28;;;;;;;7.55;1.30;;;11.60;99.90;;;;;;6115328;23;20010;-91
2021/09/29 05:38:54;;;;;;;6.15;1.55;;;11.70;99.90;;;;;;6115717;23;20025;-93
2021/09/29 05:41:19;;;;;;;3.45;0.90;;;11.70;99.90;;;;;;6115534;23;20017;-92
2021/09/29 05:43:45;;;;;;;4.15;1.27;;;11.60;99.90;;;;;;6115495;23;20061;-90
2021/09/29 05:46:11;;;;;;;3.90;0.88;;;11.70;99.90;;;;;;6086409;23;20018;-93
2021/09/29 05:48:36;;;;;;;3.90;0.85;;;11.70;99.90;;;;;;6109842;23;20017;-92
2021/09/29 05:51:02;;;;;;;3.90;0.70;;;11.70;99.90;;;;;;6062638;23;20025;-91
2021/09/29 05:53:27;;;;;;;3.58;0.70;;;11.70;99.90;;;;;;6086679;23;20014;-91
2021/09/29 05:55:53;;;;;;;5.05;0.90;;;11.70;99.90;;;;;;6110548;23;20013;-92
2021/09/29 05:58:28;;;;;;;3.55;0.80;;;11.70;99.90;;;;;;6110640;23;20037;-92
2021/09/29 06:00:53;;;;;;;6.32;1.02;;;11.70;99.90;;;;;;6110527;23;20006;-90
2021/09/29 06:03:20;;;;;;;3.05;0.73;;;11.70;99.90;;;;;;6110289;23;20017;-90
2021/09/29 06:05:47;;;;;;;2.65;0.70;;;11.70;99.90;;;;;;6109728;23;20054;-91
2021/09/29 06:08:13;;;;;;;1.88;0.85;;;11.80;99.90;;;;;;6086093;23;20017;-90
2021/09/29 06:10:38;;;;;;;3.88;0.80;;;11.70;99.90;;;;;;6085868;23;20011;-91
2021/09/29 06:13:04;;;;;;;2.72;1.20;;;11.80;99.90;;;;;;6050745;23;20046;-91
2021/09/29 06:15:32;;;;;;;3.70;0.60;;;11.80;99.90;;;;;;6051275;23;20019;-90
2021/09/29 06:17:59;;;;;;;3.05;0.80;;;11.80;99.90;;;;;;6057287;23;20090;-90
2021/09/29 06:20:27;;;;;;;2.90;1.10;;;11.80;99.90;;;;;;6057336;23;20011;-93
2021/09/29 06:22:53;;;;;;;4.95;0.95;;;11.80;99.90;;;;;;6033284;23;20429;-92
2021/09/29 06:25:21;;;;;;;4.63;0.93;;;11.80;99.90;;;;;;6032905;23;20007;-92
2021/09/29 06:27:48;;;;;;;3.85;1.20;;;11.80;99.90;;;;;;6051541;23;20022;-85
2021/09/29 06:30:14;;;;;;;4.72;0.70;;;11.80;99.90;;;;;;6085593;23;20010;-86
2021/09/29 06:32:39;;;;;;;1.73;0.82;;;11.80;99.90;;;;;;6110323;23;20113;-88
2021/09/29 06:35:07;;;;;;;5.57;0.73;;;11.80;99.90;;;;;;6087166;23;20066;-85
2021/09/29 06:37:38;;;;;;;5.28;0.90;;;11.90;99.90;;;;;;6086459;23;20015;-84
2021/09/29 06:40:06;;;;;;;5.57;1.20;;;11.90;99.90;;;;;;6085902;23;20006;-85
2021/09/29 06:42:32;;;;;;;2.55;0.70;;;11.80;99.90;;;;;;6086002;23;20014;-86
2021/09/29 06:44:58;;;;;;;2.80;0.90;;;11.90;99.90;;;;;;6085634;23;20013;-90
2021/09/29 06:47:23;;;;;;;2.88;0.57;;;11.90;99.90;;;;;;6085749;23;20018;-93
2021/09/29 06:49:49;;;;;;;3.42;1.00;;;12.00;99.90;;;;;;6085661;23;20010;-92
2021/09/29 06:52:14;;;;;;;2.05;0.70;;;11.90;99.90;;;;;;6085601;23;20022;-92
2021/09/29 06:54:40;;;;;;;4.97;0.80;;;12.00;99.90;;;;;;6085272;23;20363;-91
2021/09/29 06:57:07;;;;;;;3.63;0.60;;;12.00;99.90;;;;;;6085787;23;20040;-92
2021/09/29 06:59:35;;;;;;;4.05;1.00;;;12.00;99.90;;;;;;6085630;23;20063;-93
2021/09/29 07:02:01;;;;;;;3.10;0.80;;;12.00;99.90;;;;;;6085390;23;20017;-92
2021/09/29 07:04:26;;;;;;;3.47;0.60;;;12.00;99.90;;;;;;6085649;23;20131;-91
2021/09/29 07:06:54;;;;;;;2.70;0.60;;;12.00;99.90;;;;;;6085769;23;20014;-91
2021/09/29 07:09:20;;;;;;;3.13;0.60;;;12.10;99.90;;;;;;6085922;23;20002;-91
2021/09/29 07:11:45;;;;;;;2.40;0.80;;;12.10;99.90;;;;;;6061940;23;20191;-91
2021/09/29 07:14:11;;;;;;;2.78;0.55;;;12.10;99.90;;;;;;6085557;23;20018;-92
2021/09/29 07:16:37;;;;;;;2.05;0.57;;;12.20;99.90;;;;;;6061112;23;20053;-90
2021/09/29 07:19:03;;;;;;;5.78;0.70;;;12.20;99.90;;;;;;6061637;23;20017;-92
2021/09/29 07:21:30;;;;;;;2.25;0.50;;;12.20;99.90;;;;;;6061159;23;20071;-93
2021/09/29 07:23:56;;;;;;;3.03;0.65;;;12.20;99.90;;;;;;6085779;23;20018;-92
2021/09/29 07:26:23;;;;;;;2.38;0.50;;;12.30;99.90;;;;;;6110585;23;20018;-91
2021/09/29 07:28:49;;;;;;;2.65;0.68;;;12.30;99.90;;;;;;6080380;23;20075;-95
2021/09/29 07:31:15;;;;;;;2.20;0.50;;;12.30;99.90;;;;;;6080127;23;20045;-92
2021/09/29 07:33:41;;;;;;;1.40;0.50;;;12.30;99.90;;;;;;6080831;23;20011;-90
2021/09/29 07:36:08;;;;;;;2.13;0.90;;;12.40;99.90;;;;;;6080488;23;20007;-92
2021/09/29 07:38:34;;;;;;;3.92;0.40;;;12.40;99.90;;;;;;6080454;23;20021;-93
2021/09/29 07:41:00;;;;;;;3.42;0.50;;;12.40;99.90;;;;;;6080338;23;20419;-93
2021/09/29 07:43:26;;;;;;;1.90;0.40;;;12.40;99.90;;;;;;6080482;23;20011;-94
2021/09/29 07:45:52;;;;;;;1.70;0.50;;;12.40;99.90;;;;;;6056213;23;20042;-93
2021/09/29 07:48:17;;;;;;;5.38;0.70;;;12.30;99.90;;;;;;6080731;23;20042;-93
2021/09/29 07:50:43;;;;;;;2.40;0.60;;;12.30;99.90;;;;;;6080791;23;20062;-94
2021/09/29 07:53:09;;;;;;;5.35;1.30;;;12.30;99.90;;;;;;6080709;23;20026;-94
2021/09/29 07:55:35;;;;;;;3.40;0.70;;;12.20;99.90;;;;;;6080468;23;20030;-94
2021/09/29 07:58:00;;;;;;;1.75;0.70;;;12.20;99.90;;;;;;6080555;23;20014;-95
2021/09/29 08:00:26;;;;;;;2.13;0.60;;;12.20;99.90;;;;;;6080703;23;20029;-93
2021/09/29 08:02:52;;;;;;;6.70;1.10;;;12.30;99.90;;;;;;6080206;23;20062;-94
2021/09/29 08:05:20;;;;;;;1.90;0.60;;;12.30;99.90;;;;;;6080451;23;20007;-92
2021/09/29 08:07:48;;;;;;;5.13;1.05;;;12.30;99.90;;;;;;6080415;23;20015;-91
2021/09/29 08:10:14;;;;;;;3.78;0.80;;;12.20;99.90;;;;;;6081705;23;20054;-93
2021/09/29 08:12:40;;;;;;;2.67;0.80;;;12.30;99.90;;;;;;6081130;23;20046;-92
2021/09/29 08:15:12;;;;;;;2.78;0.88;;;12.30;99.90;;;;;;6081996;23;20007;-91
2021/09/29 08:17:39;;;;;;;2.03;0.50;;;12.40;99.90;;;;;;6081954;23;20018;-92
2021/09/29 08:20:05;;;;;;;2.60;0.70;;;12.40;99.90;;;;;;6082270;23;20007;-91
2021/09/29 08:22:31;;;;;;;3.38;0.70;;;12.40;99.90;;;;;;6082571;23;20036;-93
2021/09/29 08:25:16;;;;;;;1.90;0.73;;;12.40;99.90;;;;;;6058284;23;20003;-91
2021/09/29 08:28:10;;;;;;;2.53;1.08;;;12.40;99.90;;;;;;6082020;23;20023;-92
2021/09/29 08:30:48;;;;;;;5.47;0.68;;;12.40;99.90;;;;;;6082142;23;20018;-93
2021/09/29 08:33:46;;;;;;;2.00;0.68;;;12.40;99.90;;;;;;6081769;23;20026;-92
2021/09/29 08:38:50;;;;;;;1.77;0.70;;;12.50;99.90;;;;;;6057972;23;20010;-91
2021/09/29 08:44:08;;;;;;;3.13;1.05;;;12.50;99.90;;;;;;6058316;23;20007;-94
2021/09/29 08:52:03;;;;;;;3.28;0.88;;;12.50;99.90;;;;;;6057851;23;20031;-92
2021/09/29 09:16:32;;;;;;;5.53;1.70;;;12.80;99.90;;;;;;6057604;23;20034;-90
2021/09/29 09:19:08;;;;;;;3.55;1.98;;;12.70;99.90;;;;;;6057348;23;20023;-91
2021/09/29 09:21:36;;;;;;;4.18;2.35;;;12.70;99.90;;;;;;6081594;23;20501;-92
2021/09/29 09:24:20;;;;;;;4.25;2.13;;;12.80;99.90;;;;;;6080827;23;20007;-90
2021/09/29 09:27:06;;;;;;;5.95;1.70;;;12.90;99.90;;;;;;6081522;23;20528;-91
2021/09/29 09:29:47;;;;;;;3.00;1.92;;;12.80;99.90;;;;;;6033740;23;20071;-93
2021/09/29 09:32:15;;;;;;;4.78;2.80;;;12.80;99.90;;;;;;6081455;23;20467;-90
2021/09/29 09:34:41;;;;;;;3.85;2.15;;;12.80;99.90;;;;;;6057245;23;20007;-93
2021/09/29 09:37:12;;;;;;;4.10;2.20;;;12.80;99.90;;;;;;6057696;23;20336;-91
2021/09/29 09:39:38;;;;;;;4.53;2.42;;;12.90;99.90;;;;;;6057501;23;20252;-93
2021/09/29 09:42:07;;;;;;;3.38;2.40;;;12.90;99.90;;;;;;6057578;23;20018;-93
2021/09/29 09:44:53;;;;;;;3.80;3.20;;;12.70;99.90;;;;;;6057008;23;20022;-92
2021/09/29 09:47:21;;;;;;;4.25;3.03;;;12.60;99.90;;;;;;5971420;24;20064;-91
2021/09/29 09:49:48;;;;;;;3.20;2.10;;;12.70;99.90;;;;;;5971502;24;20071;-92
2021/09/29 09:52:40;;;;;;;5.72;1.95;;;12.60;99.90;;;;;;5971454;24;20024;-92
2021/09/29 09:55:13;;;;;;;4.13;1.60;;;12.60;99.90;;;;;;5971278;24;20008;-92
2021/09/29 09:57:41;;;;;;;3.50;1.60;;;12.60;99.90;;;;;;5971105;24;20008;-93
2021/09/29 10:00:09;;;;;;;2.70;1.23;;;12.50;99.90;;;;;;5971494;24;20004;-93
2021/09/29 10:02:40;;;;;;;2.08;0.98;;;12.50;99.90;;;;;;5971701;24;20012;-91
2021/09/29 10:05:06;;;;;;;1.70;0.80;;;12.40;99.90;;;;;;5971203;24;20016;-93
2021/09/29 10:07:32;;;;;;;2.53;0.82;;;12.40;99.90;;;;;;5971461;24;20056;-93
2021/09/29 10:10:04;;;;;;;3.75;1.00;;;12.30;99.90;;;;;;5971700;24;20009;-93
2021/09/29 10:12:47;;;;;;;2.47;1.40;;;12.20;99.90;;;;;;5971729;24;20041;-93
2021/09/29 10:27:08;;;;;;;5.00;1.30;;;12.30;99.90;;;;;;6057772;23;20007;-91
2021/09/29 10:29:46;;;;;;;3.10;1.20;;;12.20;99.90;;;;;;6062149;23;20070;-92
2021/09/29 10:32:25;;;;;;;2.13;1.02;;;12.30;99.90;;;;;;6062267;23;20734;-91
2021/09/29 10:35:45;;;;;;;2.15;0.70;;;12.40;99.90;;;;;;6061904;23;20032;-92
2021/09/29 10:40:14;;;;;;;3.63;0.82;;;12.40;99.90;;;;;;6078067;23;20046;-93
2021/09/29 10:43:33;;;;;;;1.77;0.80;;;12.20;99.90;;;;;;6085781;23;20014;-92
2021/09/29 10:46:09;;;;;;;1.75;1.35;;;12.20;99.90;;;;;;6061425;23;20019;-93
2021/09/29 10:49:03;;;;;;;2.22;0.80;;;12.20;99.90;;;;;;6061726;23;20006;-93
2021/09/29 11:03:30;;;;;;;2.50;1.10;;;12.10;99.90;;;;;;6085673;23;20034;-93
2021/09/29 11:30:26;;;;;;;2.55;0.30;;;11.50;99.90;;;;;;6056745;23;20007;-92
2021/09/29 11:35:34;;;;;;;0.60;0.30;;;11.50;99.90;;;;;;6056771;23;20103;-94
2021/09/29 11:38:33;;;;;;;0.93;0.30;;;11.40;99.90;;;;;;6056878;23;20034;-92
2021/09/29 12:08:43;;;;;;;1.70;0.30;;;11.30;99.90;;;;;;6058258;23;20011;-92
2021/09/29 12:11:24;;;;;;;0.88;0.30;;;11.40;99.90;;;;;;6034573;23;20039;-92
2021/09/29 12:14:03;;;;;;;1.90;0.35;;;11.50;99.90;;;;;;6034879;23;20042;-92
2021/09/29 12:16:32;;;;;;;0.63;0.20;;;11.70;99.90;;;;;;6034666;23;20006;-93
2021/09/29 12:19:08;;;;;;;1.05;0.30;;;11.80;99.90;;;;;;6034809;23;20011;-93
2021/09/29 12:21:47;;;;;;;2.20;0.28;;;11.90;99.90;;;;;;6034742;23;20011;-90
2021/09/29 12:24:29;;;;;;;0.85;0.30;;;11.90;99.90;;;;;;6034664;23;20018;-91
2021/09/29 12:26:57;;;;;;;0.95;0.30;;;12.10;99.90;;;;;;6034073;23;20011;-91
2021/09/29 12:34:48;;;;;;;1.35;0.20;;;12.90;99.90;;;;;;6058202;23;20022;-90
2021/09/29 12:37:15;;;;;;;2.47;0.50;;;13.20;99.90;;;;;;6032559;23;20014;-91
2021/09/29 12:39:42;;;;;;;0.98;0.40;;;13.30;99.90;;;;;;6034243;23;20018;-91
2021/09/29 12:42:08;;;;;;;1.67;0.60;;;13.50;99.90;;;;;;6034282;23;20429;-90
2021/09/29 12:44:54;;;;;;;1.63;0.70;;;13.60;99.90;;;;;;6034249;23;20167;-93
2021/09/29 12:49:45;;;;;;;2.00;0.70;;;13.20;99.90;;;;;;6028500;23;20011;-92
2021/09/29 12:52:27;;;;;;;1.40;0.70;;;13.30;99.90;;;;;;6027666;23;20059;-90
2021/09/29 12:54:52;;;;;;;1.70;0.52;;;13.40;99.90;;;;;;6004989;23;20094;-91
2021/09/29 12:57:18;;;;;;;2.17;0.68;;;13.60;99.90;;;;;;6027887;23;20448;-92
2021/09/29 12:59:44;;;;;;;2.28;0.60;;;13.40;99.90;;;;;;6027841;23;20051;-92
2021/09/29 13:02:09;;;;;;;5.22;1.00;;;13.10;99.90;;;;;;6027628;23;20088;-89
2021/09/29 13:04:38;;;;;;;3.85;0.50;;;13.00;99.90;;;;;;5983538;23;20026;-92
2021/09/29 13:07:07;;;;;;;2.45;0.60;;;12.20;99.90;;;;;;6005763;23;20107;-88
2021/09/29 13:09:32;;;;;;;2.08;0.35;;;11.90;99.90;;;;;;6003192;23;20011;-89
2021/09/29 13:11:58;;;;;;;0.90;0.10;;;11.30;99.90;;;;;;6026718;23;20011;-89
2021/09/29 13:14:24;;;;;;;4.13;0.20;;;11.00;99.90;;;;;;6003921;23;20507;-88
2021/09/29 13:16:51;;;;;;;1.67;0.10;;;11.30;99.90;;;;;;6004440;23;20027;-89
2021/09/29 13:19:24;;;;;;;3.03;0.20;;;11.30;99.90;;;;;;6028475;23;20063;-87
2021/09/29 13:21:56;;;;;;;0.65;0.10;;;11.40;99.90;;;;;;6005449;23;20531;-88
2021/09/29 13:37:57;;;;;;;3.75;0.20;;;12.80;99.90;;;;;;6039747;23;20014;-88
2021/09/29 13:40:22;;;;;;;1.55;0.28;;;13.00;99.90;;;;;;6033520;23;20078;-86
2021/09/29 13:42:48;;;;;;;1.80;0.60;;;13.00;99.90;;;;;;6033343;23;20051;-88
2021/09/29 13:45:14;;;;;;;3.88;0.30;;;13.00;99.90;;;;;;6057298;23;20440;-88
2021/09/29 13:47:39;;;;;;;2.25;0.20;;;13.30;99.90;;;;;;6057187;23;20448;-88
2021/09/29 13:50:06;;;;;;;2.50;0.30;;;13.40;99.90;;;;;;6033737;23;20011;-88
2021/09/29 13:52:32;;;;;;;4.45;0.30;;;13.40;99.90;;;;;;6032791;23;20019;-88
2021/09/29 13:55:05;;;;;;;2.15;0.30;;;13.50;99.90;;;;;;6033066;23;20010;-93
2021/09/29 13:57:42;;;;;;;1.98;0.35;;;13.50;99.90;;;;;;6057329;23;20007;-89
2021/09/29 14:30:03;;;;;;;1.95;0.30;;;13.80;99.90;;;;;;6109923;23;20010;-91
2021/09/29 14:32:50;;;;;;;3.85;0.10;;;13.80;99.90;;;;;;6085449;23;20022;-92
2021/09/29 14:35:18;;;;;;;1.15;0.10;;;13.80;99.90;;;;;;6085711;23;20014;-92
2021/09/29 14:37:43;;;;;;;1.92;0.10;;;13.70;99.90;;;;;;6061148;23;20417;-92
2021/09/29 14:40:12;;;;;;;3.13;0.20;;;13.70;99.90;;;;;;6061572;23;20006;-94
2021/09/29 14:42:38;;;;;;;1.13;0.10;;;13.70;99.90;;;;;;6061346;23;20018;-89
2021/09/29 14:45:05;;;;;;;2.70;0.15;;;13.80;99.90;;;;;;6085249;23;20030;-88
2021/09/29 14:47:30;;;;;;;2.33;0.20;;;13.70;99.90;;;;;;6085680;23;20010;-92
2021/09/29 14:49:56;;;;;;;4.10;0.20;;;13.90;99.90;;;;;;6110730;23;20008;-92
2021/09/29 14:52:22;;;;;;;3.85;0.10;;;14.20;99.90;;;;;;6084880;23;20014;-92
2021/09/29 14:54:48;;;;;;;2.17;0.20;;;14.30;99.90;;;;;;6061053;23;20066;-94
2021/09/29 14:57:15;;;;;;;1.15;0.10;;;14.10;99.90;;;;;;6109153;23;20014;-94
2021/09/29 14:59:43;;;;;;;3.00;0.20;;;13.80;99.90;;;;;;6084679;23;20066;-94
2021/09/29 15:02:09;;;;;;;3.70;0.10;;;13.70;99.90;;;;;;6062049;23;20015;-95
2021/09/29 15:04:34;;;;;;;1.58;0.15;;;13.70;99.90;;;;;;6063230;23;20017;-94
2021/09/29 15:07:00;;;;;;;1.10;0.15;;;13.20;99.90;;;;;;6086171;23;20006;-91
2021/09/29 15:09:26;;;;;;;0.50;0.08;;;12.60;99.90;;;;;;6085444;23;20006;-93
2021/09/29 15:11:51;;;;;;;0.65;0.10;;;12.40;99.90;;;;;;6085401;23;20039;-92
2021/09/29 15:14:26;;;;;;;4.05;0.10;;;12.30;99.90;;;;;;6060742;23;20017;-91
2021/09/29 15:16:59;;;;;;;1.08;0.10;;;12.20;99.90;;;;;;6061300;23;20073;-93
2021/09/29 15:19:33;;;;;;;1.95;0.20;;;12.30;99.90;;;;;;6085173;23;20058;-93
2021/09/29 15:25:13;;;;;;;1.38;0.10;;;12.20;99.90;;;;;;6085023;23;20010;-93
2021/09/29 15:46:45;;;;;;;2.40;0.20;;;11.90;99.90;;;;;;6109814;23;20007;-91
2021/09/29 15:55:10;;;;;;;1.27;0.20;;;11.60;99.90;;;;;;6084894;23;20066;-94
2021/09/29 16:00:44;;;;;;;1.88;0.20;;;11.40;99.90;;;;;;6084534;23;20011;-92
2021/09/29 16:03:07;;;;;;;1.13;0.10;;;11.30;99.90;;;;;;6084388;23;20006;-91
2021/09/29 16:09:17;;;;;;;2.03;0.10;;;11.20;99.90;;;;;;6052765;23;20132;-91
2021/09/29 16:31:29;;;;;;;1.17;0.10;;;10.20;99.90;;;;;;6056313;23;20015;-89
2021/09/29 16:33:54;;;;;;;1.25;0.10;;;10.20;99.90;;;;;;6056957;23;20018;-93
2021/09/29 16:36:23;;;;;;;1.58;0.10;;;10.20;99.90;;;;;;6035410;23;20014;-91